createdAt,value
2023-12-23T00:00:47.099Z,95398.75
2023-12-23T00:03:13.609Z,95392.59
2023-12-23T00:05:40.071Z,95396.34
2023-12-23T00:08:06.660Z,95399.03
2023-12-23T00:10:33.193Z,95394.31
2023-12-23T00:12:59.624Z,95397.63
2023-12-23T00:15:26.041Z,95384.38
2023-12-23T00:17:52.852Z,95387.81
2023-12-23T00:20:19.958Z,95377.22
2023-12-23T00:22:46.505Z,95387.66
2023-12-23T00:25:12.918Z,95396.63
2023-12-23T00:27:39.319Z,95389.88
2023-12-23T00:30:05.829Z,95400.31
2023-12-23T00:32:32.298Z,95403.28
2023-12-23T00:34:58.821Z,95395.53
2023-12-23T00:37:25.416Z,95398.50
2023-12-23T00:39:51.904Z,95392.63
2023-12-23T00:42:18.318Z,95381.78
2023-12-23T00:44:44.726Z,95381.44
2023-12-23T00:47:11.263Z,95377.78
2023-12-23T00:49:37.812Z,95372.44
2023-12-23T00:52:04.236Z,95378.00
2023-12-23T00:54:30.656Z,95385.81
2023-12-23T00:56:57.076Z,95387.75
2023-12-23T00:59:23.527Z,95383.78
2023-12-23T01:01:50.014Z,95377.84
2023-12-23T01:04:16.479Z,95378.13
2023-12-23T01:06:42.993Z,95374.59
2023-12-23T01:09:09.460Z,95381.13
2023-12-23T01:11:35.858Z,95366.06
2023-12-23T01:14:02.318Z,95377.44
2023-12-23T01:16:28.745Z,95384.34
2023-12-23T01:18:55.176Z,95384.69
2023-12-23T01:21:21.629Z,95376.69
2023-12-23T01:23:48.054Z,95379.38
2023-12-23T01:26:14.614Z,95383.25
2023-12-23T01:28:41.085Z,95392.25
2023-12-23T01:31:07.549Z,95391.25
2023-12-23T01:33:34.016Z,95394.34
2023-12-23T01:36:00.485Z,95397.47
2023-12-23T01:38:26.954Z,95392.47
2023-12-23T01:40:53.491Z,95408.09
2023-12-23T01:43:19.918Z,95405.13
2023-12-23T01:45:46.339Z,95401.59
2023-12-23T01:48:12.872Z,95404.88
2023-12-23T01:50:39.306Z,95422.31
2023-12-23T01:53:05.777Z,95404.09
2023-12-23T01:55:32.212Z,95408.22
2023-12-23T01:57:58.637Z,95412.50
2023-12-23T02:00:25.052Z,95412.41
2023-12-23T02:02:51.906Z,95442.22
2023-12-23T02:05:18.784Z,95413.63
2023-12-23T02:07:45.303Z,95422.59
2023-12-23T02:10:11.722Z,95439.78
2023-12-23T02:12:39.738Z,95423.69
2023-12-23T02:15:06.290Z,95427.47
2023-12-23T02:17:32.831Z,95442.22
2023-12-23T02:19:59.308Z,95437.81
2023-12-23T02:22:25.711Z,95443.25
2023-12-23T02:24:52.127Z,95432.84
2023-12-23T02:27:18.553Z,95444.50
2023-12-23T02:29:44.965Z,95432.84
2023-12-23T02:32:11.422Z,95436.06
2023-12-23T02:34:37.854Z,95454.25
2023-12-23T02:37:04.311Z,95451.00
2023-12-23T02:39:30.721Z,95456.25
2023-12-23T02:41:57.165Z,95450.78
2023-12-23T02:44:23.596Z,95451.72
2023-12-23T02:46:50.106Z,95458.22
2023-12-23T02:49:16.546Z,95442.56
2023-12-23T02:51:42.954Z,95450.75
2023-12-23T02:54:09.393Z,95453.31
2023-12-23T02:56:35.804Z,95446.47
2023-12-23T02:59:02.335Z,95439.69
2023-12-23T03:01:28.777Z,95460.34
2023-12-23T03:03:55.211Z,95460.09
2023-12-23T03:06:21.636Z,95451.38
2023-12-23T03:08:48.068Z,95450.34
2023-12-23T03:11:14.648Z,95452.97
2023-12-23T03:13:43.377Z,95464.75
2023-12-23T03:16:09.822Z,95455.63
2023-12-23T03:18:36.349Z,95451.63
2023-12-23T03:21:02.814Z,95449.69
2023-12-23T03:23:29.362Z,95451.09
2023-12-23T03:25:55.856Z,95454.84
2023-12-23T03:28:22.316Z,95469.59
2023-12-23T03:30:48.823Z,95462.59
2023-12-23T03:33:15.374Z,95447.91
2023-12-23T03:35:41.806Z,95442.13
2023-12-23T03:38:08.274Z,95449.44
2023-12-23T03:40:34.721Z,95445.63
2023-12-23T03:43:01.149Z,95453.56
2023-12-23T03:45:27.564Z,95454.59
2023-12-23T03:47:54.143Z,95451.88
2023-12-23T03:50:20.668Z,95454.41
2023-12-23T03:52:47.315Z,95442.97
2023-12-23T03:55:13.818Z,95432.72
2023-12-23T03:57:40.220Z,95434.53
2023-12-23T04:00:06.646Z,95424.13
2023-12-23T04:02:33.071Z,95414.97
2023-12-23T04:04:59.524Z,95408.19
2023-12-23T04:07:26.013Z,95408.88
2023-12-23T04:09:52.422Z,95412.66
2023-12-23T04:12:18.839Z,95407.25
2023-12-23T04:14:45.230Z,95405.41
2023-12-23T04:17:11.720Z,95421.47
2023-12-23T04:19:38.133Z,95428.75
2023-12-23T04:22:04.572Z,95441.88
2023-12-23T04:24:31.005Z,95433.31
2023-12-23T04:26:57.442Z,95433.31
2023-12-23T04:29:23.917Z,95447.53
2023-12-23T04:31:50.460Z,95424.09
2023-12-23T04:34:17.045Z,95443.22
2023-12-23T04:36:43.547Z,95432.91
2023-12-23T04:39:09.985Z,95420.28
2023-12-23T04:41:36.410Z,95436.28
2023-12-23T04:44:02.879Z,95447.03
2023-12-23T04:46:29.310Z,95456.28
2023-12-23T04:48:55.751Z,95459.97
2023-12-23T04:51:22.185Z,95460.53
2023-12-23T04:53:48.591Z,95449.19
2023-12-23T04:56:15.067Z,95462.88
2023-12-23T04:58:41.528Z,95448.16
2023-12-23T05:01:07.996Z,95447.81
2023-12-23T05:03:34.497Z,95453.91
2023-12-23T05:06:01.013Z,95461.44
2023-12-23T05:08:27.505Z,95447.56
2023-12-23T05:10:53.995Z,95438.91
2023-12-23T05:13:20.435Z,95442.22
2023-12-23T05:15:46.852Z,95442.28
2023-12-23T05:18:13.376Z,95444.50
2023-12-23T05:20:39.837Z,95450.91
2023-12-23T05:23:06.296Z,95453.97
2023-12-23T05:25:32.803Z,95449.06
2023-12-23T05:27:59.218Z,95439.25
2023-12-23T05:30:25.691Z,95440.94
2023-12-23T05:32:52.564Z,95444.09
2023-12-23T05:35:19.320Z,95449.00
2023-12-23T05:37:45.778Z,95447.16
2023-12-23T05:40:12.215Z,95448.81
2023-12-23T05:42:38.616Z,95458.19
2023-12-23T05:45:05.078Z,95459.22
2023-12-23T05:47:31.669Z,95471.50
2023-12-23T05:49:58.170Z,95460.06
2023-12-23T05:52:24.611Z,95464.56
2023-12-23T05:54:51.020Z,95459.25
2023-12-23T05:57:17.435Z,95457.97
2023-12-23T05:59:43.844Z,95464.13
2023-12-23T06:02:10.293Z,95462.31
2023-12-23T06:04:36.710Z,95464.56
2023-12-23T06:07:03.153Z,95462.47
2023-12-23T06:09:29.595Z,95465.84
2023-12-23T06:11:56.018Z,95455.66
2023-12-23T06:14:22.508Z,95469.03
2023-12-23T06:16:49.010Z,95479.16
2023-12-23T06:19:15.597Z,95466.66
2023-12-23T06:21:42.054Z,95483.91
2023-12-23T06:24:08.473Z,95468.69
2023-12-23T06:26:34.896Z,95472.69
2023-12-23T06:29:01.365Z,95475.72
2023-12-23T06:31:27.806Z,95475.97
2023-12-23T06:33:54.330Z,95488.59
2023-12-23T06:36:20.883Z,95491.28
2023-12-23T06:38:47.313Z,95482.13
2023-12-23T06:41:13.811Z,95493.81
2023-12-23T06:43:46.463Z,95497.88
2023-12-23T06:46:18.504Z,95511.13
2023-12-23T06:48:45.048Z,95511.66
2023-12-23T06:51:11.533Z,95528.00
2023-12-23T06:53:37.940Z,95534.38
2023-12-23T06:56:04.375Z,95517.66
2023-12-23T06:58:30.796Z,95528.81
2023-12-23T07:00:57.242Z,95526.88
2023-12-23T07:03:23.720Z,95529.59
2023-12-23T07:05:50.207Z,95520.41
2023-12-23T07:08:16.765Z,95523.03
2023-12-23T07:10:43.262Z,95528.44
2023-12-23T07:13:09.694Z,95534.56
2023-12-23T07:15:36.099Z,95538.28
2023-12-23T07:18:02.634Z,95540.91
2023-12-23T07:20:29.167Z,95537.47
2023-12-23T07:22:55.686Z,95532.00
2023-12-23T07:25:22.139Z,95533.84
2023-12-23T07:27:48.572Z,95548.09
2023-12-23T07:30:15.052Z,95548.41
2023-12-23T07:32:41.551Z,95538.59
2023-12-23T07:35:08.037Z,95536.66
2023-12-23T07:37:34.509Z,95540.03
2023-12-23T07:40:00.933Z,95553.22
2023-12-23T07:42:27.355Z,95546.13
2023-12-23T07:44:53.781Z,95537.31
2023-12-23T07:47:20.232Z,95536.63
2023-12-23T07:49:46.678Z,95537.00
2023-12-23T07:52:13.140Z,95541.66
2023-12-23T07:54:39.559Z,95538.47
2023-12-23T07:57:05.981Z,95540.59
2023-12-23T07:59:32.419Z,95543.44
2023-12-23T08:01:58.945Z,95524.66
2023-12-23T08:04:25.370Z,95533.09
2023-12-23T08:06:51.781Z,95543.50
2023-12-23T08:09:18.197Z,95540.72
2023-12-23T08:11:44.596Z,95538.00
2023-12-23T08:14:11.095Z,95537.06
2023-12-23T08:16:37.525Z,95532.44
2023-12-23T08:19:04.007Z,95535.28
2023-12-23T08:21:30.462Z,95544.78
2023-12-23T08:23:56.889Z,95550.53
2023-12-23T08:26:23.324Z,95557.75
2023-12-23T08:28:49.765Z,95549.41
2023-12-23T08:31:16.234Z,95552.31
2023-12-23T08:33:42.742Z,95536.66
2023-12-23T08:36:09.204Z,95535.53
2023-12-23T08:38:35.687Z,95530.28
2023-12-23T08:41:02.230Z,95535.44
2023-12-23T08:43:28.667Z,95535.91
2023-12-23T08:45:55.059Z,95539.72
2023-12-23T08:48:21.643Z,95541.75
2023-12-23T08:50:48.103Z,95528.00
2023-12-23T08:53:14.575Z,95551.34
2023-12-23T08:55:41.042Z,95531.22
2023-12-23T08:58:07.492Z,95524.78
2023-12-23T09:00:33.944Z,95522.66
2023-12-23T09:03:00.484Z,95530.38
2023-12-23T09:05:27.038Z,95532.22
2023-12-23T09:07:54.022Z,95526.88
2023-12-23T09:10:20.699Z,95545.16
2023-12-23T09:12:47.113Z,95546.69
2023-12-23T09:15:13.560Z,95551.28
2023-12-23T09:17:40.179Z,95552.72
2023-12-23T09:20:06.827Z,95565.56
2023-12-23T09:22:33.278Z,95563.44
2023-12-23T09:24:59.711Z,95553.56
2023-12-23T09:27:26.161Z,95562.97
2023-12-23T09:29:54.612Z,95548.59
2023-12-23T09:32:21.457Z,95549.19
2023-12-23T09:34:47.990Z,95560.19
2023-12-23T09:37:14.404Z,95556.25
2023-12-23T09:39:40.877Z,95556.25
2023-12-23T09:42:07.280Z,95554.69
2023-12-23T09:44:33.751Z,95551.06
2023-12-23T09:47:00.337Z,95565.66
2023-12-23T09:49:26.859Z,95548.84
2023-12-23T09:51:53.315Z,95568.72
2023-12-23T09:54:19.743Z,95577.44
2023-12-23T09:56:46.179Z,95576.97
2023-12-23T09:59:12.676Z,95574.00
2023-12-23T10:01:39.193Z,95579.94
2023-12-23T10:04:05.634Z,95572.88
2023-12-23T10:06:32.221Z,95576.34
2023-12-23T10:08:58.699Z,95575.38
2023-12-23T10:11:25.296Z,95580.84
2023-12-23T10:13:51.817Z,95574.41
2023-12-23T10:16:18.251Z,95585.97
2023-12-23T10:18:44.791Z,95576.28
2023-12-23T10:21:11.254Z,95557.88
2023-12-23T10:23:37.690Z,95569.38
2023-12-23T10:26:04.245Z,95564.75
2023-12-23T10:28:30.676Z,95563.72
2023-12-23T10:30:57.212Z,95552.75
2023-12-23T10:33:23.721Z,95547.09
2023-12-23T10:35:51.238Z,95538.97
2023-12-23T10:38:17.698Z,95551.28
2023-12-23T10:40:44.241Z,95550.66
2023-12-23T10:43:10.714Z,95540.13
2023-12-23T10:45:37.492Z,95552.34
2023-12-23T10:48:04.072Z,95541.59
2023-12-23T10:50:30.685Z,95533.59
2023-12-23T10:52:57.142Z,95531.00
2023-12-23T10:55:23.605Z,95550.06
2023-12-23T10:57:50.090Z,95518.00
2023-12-23T11:00:16.501Z,95532.16
2023-12-23T11:02:42.979Z,95534.59
2023-12-23T11:05:09.510Z,95526.75
2023-12-23T11:07:35.956Z,95516.34
2023-12-23T11:10:02.432Z,95520.28
2023-12-23T11:12:28.886Z,95535.91
2023-12-23T11:14:55.325Z,95542.38
2023-12-23T11:17:21.809Z,95536.78
2023-12-23T11:19:48.250Z,95537.84
2023-12-23T11:22:14.674Z,95536.28
2023-12-23T11:24:41.087Z,95531.16
2023-12-23T11:27:07.489Z,95538.47
2023-12-23T11:29:34.008Z,95526.47
2023-12-23T11:32:00.464Z,95531.44
2023-12-23T11:34:26.941Z,95527.75
2023-12-23T11:36:53.366Z,95529.00
2023-12-23T11:39:19.803Z,95516.56
2023-12-23T11:41:46.241Z,95498.06
2023-12-23T11:44:12.763Z,95497.41
2023-12-23T11:46:39.224Z,95535.84
2023-12-23T11:49:05.696Z,95528.19
2023-12-23T11:51:32.138Z,95510.47
2023-12-23T11:54:00.348Z,95505.72
2023-12-23T11:56:27.138Z,95483.94
2023-12-23T11:58:53.888Z,95499.22
2023-12-23T12:01:20.458Z,95486.78
2023-12-23T12:03:46.953Z,95490.75
2023-12-23T12:06:13.433Z,95473.25
2023-12-23T12:08:39.947Z,95492.00
2023-12-23T12:11:06.405Z,95483.22
2023-12-23T12:13:32.838Z,95465.56
2023-12-23T12:15:59.427Z,95486.38
2023-12-23T12:18:26.008Z,95476.59
2023-12-23T12:20:52.553Z,95476.25
2023-12-23T12:23:19.059Z,95455.53
2023-12-23T12:25:45.510Z,95459.09
2023-12-23T12:28:12.118Z,95443.72
2023-12-23T12:30:38.565Z,95446.06
2023-12-23T12:33:05.107Z,95468.91
2023-12-23T12:35:31.628Z,95450.53
2023-12-23T12:37:58.864Z,95438.06
2023-12-23T12:40:26.545Z,95461.34
2023-12-23T12:42:53.304Z,95438.19
2023-12-23T12:45:20.002Z,95425.59
2023-12-23T12:47:46.455Z,95436.63
2023-12-23T12:50:12.922Z,95444.03
2023-12-23T12:52:39.373Z,95440.06
2023-12-23T12:55:05.778Z,95447.53
2023-12-23T12:57:33.306Z,95446.59
2023-12-23T12:59:59.735Z,95443.66
2023-12-23T13:02:26.201Z,95438.88
2023-12-23T13:04:52.678Z,95448.06
2023-12-23T13:07:19.115Z,95438.84
2023-12-23T13:09:45.539Z,95437.34
2023-12-23T13:12:11.975Z,95447.03
2023-12-23T13:14:38.386Z,95413.50
2023-12-23T13:17:04.858Z,95425.63
2023-12-23T13:19:31.346Z,95431.34
2023-12-23T13:21:57.813Z,95436.41
2023-12-23T13:24:24.231Z,95439.09
2023-12-23T13:26:50.659Z,95463.81
2023-12-23T13:29:17.121Z,95431.59
2023-12-23T13:31:43.561Z,95451.94
2023-12-23T13:34:11.996Z,95431.59
2023-12-23T13:36:38.579Z,95429.63
2023-12-23T13:39:04.994Z,95449.22
2023-12-23T13:41:31.457Z,95444.38
2023-12-23T13:43:57.977Z,95445.00
2023-12-23T13:46:24.446Z,95437.75
2023-12-23T13:48:50.986Z,95444.72
2023-12-23T13:51:17.453Z,95443.25
2023-12-23T13:53:43.887Z,95452.13
2023-12-23T13:56:10.416Z,95446.38
2023-12-23T13:58:36.893Z,95453.53
2023-12-23T14:01:03.328Z,95458.88
2023-12-23T14:03:29.831Z,95444.41
2023-12-23T14:05:56.322Z,95453.75
2023-12-23T14:08:23.029Z,95475.88
2023-12-23T14:10:50.129Z,95445.59
2023-12-23T14:13:16.686Z,95430.44
2023-12-23T14:15:43.121Z,95457.69
2023-12-23T14:18:09.626Z,95435.72
2023-12-23T14:20:36.122Z,95435.38
2023-12-23T14:23:02.605Z,95454.31
2023-12-23T14:25:29.127Z,95450.16
2023-12-23T14:27:55.574Z,95456.56
2023-12-23T14:30:22.068Z,95441.22
2023-12-23T14:32:48.573Z,95450.00
2023-12-23T14:35:15.125Z,95463.75
2023-12-23T14:37:48.436Z,95446.75
2023-12-23T14:40:17.057Z,95457.28
2023-12-23T14:42:43.489Z,95461.53
2023-12-23T14:45:09.928Z,95465.28
2023-12-23T14:47:36.518Z,95467.53
2023-12-23T14:50:03.068Z,95465.97
2023-12-23T14:52:29.549Z,95462.25
2023-12-23T14:54:55.966Z,95466.69
2023-12-23T14:57:22.390Z,95471.94
2023-12-23T14:59:48.872Z,95467.53
2023-12-23T15:02:15.368Z,95483.34
2023-12-23T15:04:41.842Z,95477.00
2023-12-23T15:07:08.287Z,95472.88
2023-12-23T15:09:34.697Z,95483.28
2023-12-23T15:12:01.103Z,95484.00
2023-12-23T15:14:27.553Z,95469.06
2023-12-23T15:16:54.026Z,95468.91
2023-12-23T15:19:20.453Z,95479.69
2023-12-23T15:21:46.920Z,95479.59
2023-12-23T15:24:13.360Z,95477.09
2023-12-23T15:26:39.780Z,95466.25
2023-12-23T15:29:06.293Z,95466.28
2023-12-23T15:31:33.045Z,95464.16
2023-12-23T15:33:59.593Z,95468.72
2023-12-23T15:36:26.248Z,95462.47
2023-12-23T15:38:52.717Z,95488.13
2023-12-23T15:41:19.161Z,95481.03
2023-12-23T15:43:45.588Z,95462.41
2023-12-23T15:46:12.002Z,95479.56
2023-12-23T15:48:38.515Z,95469.19
2023-12-23T15:51:05.010Z,95461.03
2023-12-23T15:53:31.595Z,95480.94
2023-12-23T15:55:58.168Z,95477.78
2023-12-23T15:58:24.621Z,95484.13
2023-12-23T16:00:51.058Z,95484.56
2023-12-23T16:03:17.547Z,95478.53
2023-12-23T16:05:44.074Z,95477.88
2023-12-23T16:08:10.632Z,95485.94
2023-12-23T16:10:37.132Z,95491.06
2023-12-23T16:13:03.551Z,95489.34
2023-12-23T16:15:29.976Z,95491.59
2023-12-23T16:17:56.470Z,95485.59
2023-12-23T16:20:23.018Z,95493.34
2023-12-23T16:22:49.741Z,95484.84
2023-12-23T16:25:16.323Z,95486.78
2023-12-23T16:27:42.729Z,95497.28
2023-12-23T16:30:09.201Z,95486.78
2023-12-23T16:32:35.743Z,95483.03
2023-12-23T16:35:02.241Z,95490.34
2023-12-23T16:37:28.745Z,95484.28
2023-12-23T16:39:55.177Z,95489.31
2023-12-23T16:42:21.569Z,95492.22
2023-12-23T16:44:48.004Z,95499.22
2023-12-23T16:47:14.432Z,95490.56
2023-12-23T16:49:42.230Z,95499.38
2023-12-23T16:52:08.956Z,95511.03
2023-12-23T16:54:35.372Z,95505.78
2023-12-23T16:57:01.821Z,95508.50
2023-12-23T16:59:28.290Z,95506.97
2023-12-23T17:01:54.825Z,95504.06
2023-12-23T17:04:21.299Z,95506.13
2023-12-23T17:06:47.729Z,95510.38
2023-12-23T17:09:14.139Z,95501.09
2023-12-23T17:11:40.600Z,95508.91
2023-12-23T17:14:07.062Z,95501.44
2023-12-23T17:16:33.490Z,95508.72
2023-12-23T17:19:00.008Z,95517.97
2023-12-23T17:21:26.540Z,95518.91
2023-12-23T17:23:52.975Z,95511.81
2023-12-23T17:26:19.395Z,95508.97
2023-12-23T17:28:45.862Z,95511.13
2023-12-23T17:31:12.277Z,95506.06
2023-12-23T17:33:38.784Z,95507.25
2023-12-23T17:36:05.215Z,95519.13
2023-12-23T17:38:31.726Z,95531.03
2023-12-23T17:40:58.246Z,95531.06
2023-12-23T17:43:24.692Z,95525.09
2023-12-23T17:45:51.118Z,95523.44
2023-12-23T17:48:17.590Z,95527.50
2023-12-23T17:50:44.059Z,95534.44
2023-12-23T17:53:10.487Z,95525.63
2023-12-23T17:55:36.912Z,95524.41
2023-12-23T17:58:03.337Z,95515.66
2023-12-23T18:00:29.838Z,95520.47
2023-12-23T18:02:56.386Z,95533.31
2023-12-23T18:05:22.997Z,95526.56
2023-12-23T18:07:49.501Z,95526.88
2023-12-23T18:10:15.929Z,95531.47
2023-12-23T18:12:42.369Z,95534.19
2023-12-23T18:15:08.785Z,95553.41
2023-12-23T18:17:35.302Z,95554.13
2023-12-23T18:20:01.910Z,95559.75
2023-12-23T18:22:28.380Z,95560.00
2023-12-23T18:24:54.798Z,95558.41
2023-12-23T18:27:21.252Z,95561.72
2023-12-23T18:29:47.679Z,95564.84
2023-12-23T18:32:14.112Z,95562.38
2023-12-23T18:34:40.709Z,95567.09
2023-12-23T18:37:07.239Z,95566.53
2023-12-23T18:39:33.683Z,95562.31
2023-12-23T18:42:00.167Z,95573.97
2023-12-23T18:44:26.659Z,95578.91
2023-12-23T18:46:53.155Z,95576.16
2023-12-23T18:49:19.642Z,95574.44
2023-12-23T18:51:46.059Z,95569.66
2023-12-23T18:54:12.516Z,95570.09
2023-12-23T18:56:39.000Z,95579.31
2023-12-23T18:59:05.602Z,95579.66
2023-12-23T19:01:32.220Z,95578.31
2023-12-23T19:03:58.647Z,95574.75
2023-12-23T19:06:25.078Z,95592.13
2023-12-23T19:08:51.501Z,95591.00
2023-12-23T19:11:17.954Z,95585.41
2023-12-23T19:13:44.400Z,95586.38
2023-12-23T19:16:10.841Z,95595.34
2023-12-23T19:18:37.390Z,95588.13
2023-12-23T19:21:03.914Z,95593.75
2023-12-23T19:23:30.499Z,95598.72
2023-12-23T19:25:56.985Z,95592.47
2023-12-23T19:28:23.420Z,95605.59
2023-12-23T19:30:49.915Z,95607.38
2023-12-23T19:33:16.465Z,95603.56
2023-12-23T19:35:43.069Z,95614.03
2023-12-23T19:38:09.538Z,95611.66
2023-12-23T19:40:35.985Z,95629.00
2023-12-23T19:43:02.428Z,95639.16
2023-12-23T19:45:29.205Z,95629.78
2023-12-23T19:47:55.760Z,95638.50
2023-12-23T19:50:22.324Z,95642.91
2023-12-23T19:52:52.150Z,95634.59
2023-12-23T19:55:18.676Z,95633.59
2023-12-23T19:57:45.106Z,95634.00
2023-12-23T20:00:11.552Z,95640.06
2023-12-23T20:02:38.065Z,95635.66
2023-12-23T20:05:04.572Z,95625.59
2023-12-23T20:07:31.071Z,95629.75
2023-12-23T20:09:57.547Z,95630.22
2023-12-23T20:12:24.021Z,95629.44
2023-12-23T20:14:50.444Z,95631.94
2023-12-23T20:17:17.068Z,95618.56
2023-12-23T20:19:43.479Z,95619.47
2023-12-23T20:22:09.946Z,95611.47
2023-12-23T20:24:36.356Z,95619.84
2023-12-23T20:27:04.669Z,95619.06
2023-12-23T20:29:31.676Z,95614.06
2023-12-23T20:31:58.414Z,95612.38
2023-12-23T20:34:25.062Z,95616.28
2023-12-23T20:36:51.736Z,95611.03
2023-12-23T20:39:26.490Z,95615.84
2023-12-23T20:41:56.464Z,95613.06
2023-12-23T20:44:23.047Z,95614.00
2023-12-23T20:46:49.487Z,95607.19
2023-12-23T20:49:16.291Z,95612.19
2023-12-23T20:51:42.704Z,95606.69
2023-12-23T20:54:09.128Z,95612.09
2023-12-23T20:56:35.642Z,95617.03
2023-12-23T20:59:02.102Z,95616.06
2023-12-23T21:01:28.741Z,95627.47
2023-12-23T21:03:55.239Z,95631.88
2023-12-23T21:06:21.756Z,95636.25
2023-12-23T21:08:48.284Z,95639.59
2023-12-23T21:11:14.786Z,95640.34
2023-12-23T21:13:41.242Z,95645.69
2023-12-23T21:16:07.692Z,95641.16
2023-12-23T21:18:34.246Z,95641.09
2023-12-23T21:21:00.719Z,95634.16
2023-12-23T21:23:27.184Z,95633.41
2023-12-23T21:25:53.737Z,95636.56
2023-12-23T21:28:20.173Z,95631.28
2023-12-23T21:30:46.642Z,95622.22
2023-12-23T21:33:13.195Z,95629.19
2023-12-23T21:35:39.863Z,95616.47
2023-12-23T21:38:06.396Z,95613.19
2023-12-23T21:40:32.846Z,95612.25
2023-12-23T21:42:59.267Z,95613.44
2023-12-23T21:45:25.684Z,95614.31
2023-12-23T21:47:54.112Z,95620.19
2023-12-23T21:50:22.453Z,95607.56
2023-12-23T21:52:49.125Z,95609.31
2023-12-23T21:55:15.705Z,95602.88
2023-12-23T21:57:42.140Z,95605.19
2023-12-23T22:00:08.584Z,95602.72
2023-12-23T22:02:36.365Z,95611.84
2023-12-23T22:05:03.951Z,95606.50
2023-12-23T22:07:30.415Z,95603.53
2023-12-23T22:09:56.833Z,95601.41
2023-12-23T22:12:23.256Z,95611.75
2023-12-23T22:14:49.679Z,95617.94
2023-12-23T22:17:16.160Z,95606.56
2023-12-23T22:19:42.618Z,95608.50
2023-12-23T22:22:09.066Z,95610.72
2023-12-23T22:24:35.509Z,95622.25
2023-12-23T22:27:01.914Z,95610.25
2023-12-23T22:29:28.452Z,95603.59
2023-12-23T22:31:54.983Z,95617.59
2023-12-23T22:34:21.563Z,95607.34
2023-12-23T22:36:48.003Z,95610.28
2023-12-23T22:39:14.416Z,95614.44
2023-12-23T22:41:40.896Z,95608.75
2023-12-23T22:44:07.407Z,95613.13
2023-12-23T22:46:34.484Z,95602.31
2023-12-23T22:49:01.679Z,95607.13
2023-12-23T22:51:28.144Z,95600.78
2023-12-23T22:53:54.564Z,95606.34
2023-12-23T22:56:21.104Z,95610.06
2023-12-23T22:58:47.537Z,95614.97
2023-12-23T23:01:14.086Z,95615.09
2023-12-23T23:03:40.594Z,95611.16
2023-12-23T23:06:07.163Z,95605.59
2023-12-23T23:08:33.763Z,95596.31
2023-12-23T23:11:00.293Z,95606.88
2023-12-23T23:13:26.738Z,95610.16
2023-12-23T23:15:53.176Z,95609.28
2023-12-23T23:18:19.724Z,95606.25
2023-12-23T23:20:46.306Z,95614.75
2023-12-23T23:23:12.794Z,95614.53
2023-12-23T23:25:39.239Z,95614.41
2023-12-23T23:28:05.658Z,95614.84
2023-12-23T23:30:32.108Z,95607.75
2023-12-23T23:32:58.598Z,95608.75
2023-12-23T23:35:25.153Z,95603.50
2023-12-23T23:37:51.676Z,95600.41
2023-12-23T23:40:18.094Z,95600.75
2023-12-23T23:42:44.502Z,95602.94
2023-12-23T23:45:10.956Z,95603.47
2023-12-23T23:47:37.541Z,95605.69
2023-12-23T23:50:06.011Z,95602.09
2023-12-23T23:52:34.374Z,95593.03
2023-12-23T23:55:00.859Z,95587.94
2023-12-23T23:57:27.272Z,95595.78
2023-12-23T23:59:54.721Z,95583.47
